createdAt,value
2023-04-28T00:00:51.869Z,2.38
2023-04-28T00:03:40.756Z,4.25
2023-04-28T00:06:30.918Z,6.82
2023-04-28T00:09:19.788Z,6.05
2023-04-28T00:12:08.862Z,3.30
2023-04-28T00:14:58.981Z,2.63
2023-04-28T00:17:47.764Z,2.33
2023-04-28T00:20:36.756Z,2.90
2023-04-28T00:23:25.537Z,2.83
2023-04-28T00:26:14.429Z,2.50
2023-04-28T00:29:03.206Z,2.57
2023-04-28T00:31:53.593Z,2.63
2023-04-28T00:34:42.412Z,2.78
2023-04-28T00:37:31.285Z,2.80
2023-04-28T00:40:19.964Z,2.53
2023-04-28T00:43:08.652Z,3.03
2023-04-28T00:45:57.530Z,2.70
2023-04-28T00:48:47.765Z,2.50
2023-04-28T00:51:36.525Z,2.78
2023-04-28T00:54:26.116Z,2.70
2023-04-28T00:57:15.364Z,2.67
2023-04-28T01:00:04.477Z,2.78
2023-04-28T01:02:54.337Z,2.30
2023-04-28T01:05:44.698Z,2.90
2023-04-28T01:08:33.999Z,2.87
2023-04-28T01:11:22.815Z,2.60
2023-04-28T01:14:11.664Z,2.70
2023-04-28T01:17:00.942Z,2.33
2023-04-28T01:19:49.831Z,2.55
2023-04-28T01:22:40.048Z,2.20
2023-04-28T01:25:30.163Z,2.85
2023-04-28T01:28:18.950Z,2.85
2023-04-28T01:31:07.768Z,2.55
2023-04-28T01:33:56.611Z,2.55
2023-04-28T01:36:46.113Z,2.50
2023-04-28T01:39:35.085Z,2.13
2023-04-28T01:42:25.149Z,3.20
2023-04-28T01:45:14.299Z,2.53
2023-04-28T01:48:03.152Z,2.13
2023-04-28T01:50:51.974Z,2.47
2023-04-28T01:53:40.854Z,2.50
2023-04-28T01:56:29.564Z,2.53
2023-04-28T01:59:20.801Z,2.40
2023-04-28T02:02:09.651Z,2.28
2023-04-28T02:04:59.258Z,2.17
2023-04-28T02:07:48.062Z,2.25
2023-04-28T02:10:36.798Z,2.50
2023-04-28T02:13:25.688Z,2.78
2023-04-28T02:16:16.129Z,2.30
2023-04-28T02:19:04.929Z,2.40
2023-04-28T02:21:53.641Z,2.25
2023-04-28T02:24:42.351Z,2.20
2023-04-28T02:27:31.306Z,2.63
2023-04-28T02:30:20.177Z,2.28
2023-04-28T02:33:10.330Z,2.53
2023-04-28T02:36:00.717Z,2.58
2023-04-28T02:38:49.342Z,2.30
2023-04-28T02:41:37.820Z,2.60
2023-04-28T02:44:26.962Z,2.67
2023-04-28T02:47:15.530Z,2.47
2023-04-28T02:50:05.839Z,2.88
2023-04-28T02:52:54.633Z,5.18
2023-04-28T02:55:43.202Z,18.85
2023-04-28T02:58:31.731Z,25.23
2023-04-28T03:01:20.389Z,22.02
2023-04-28T03:04:09.020Z,21.85
2023-04-28T03:06:59.158Z,16.05
2023-04-28T03:09:48.600Z,14.02
2023-04-28T03:12:37.118Z,13.25
2023-04-28T03:15:25.674Z,12.48
2023-04-28T03:18:14.242Z,11.98
2023-04-28T03:21:02.815Z,12.77
2023-04-28T03:23:52.731Z,9.93
2023-04-28T03:26:41.257Z,7.77
2023-04-28T03:29:29.808Z,6.68
2023-04-28T03:32:18.496Z,6.55
2023-04-28T03:35:07.910Z,5.53
2023-04-28T03:37:56.456Z,5.35
2023-04-28T03:40:46.353Z,4.28
2023-04-28T03:43:37.380Z,4.25
2023-04-28T03:46:26.018Z,5.30
2023-04-28T03:49:14.634Z,15.52
2023-04-28T03:52:04.475Z,22.23
2023-04-28T03:54:53.100Z,26.10
2023-04-28T03:57:43.091Z,32.53
2023-04-28T04:00:31.755Z,41.88
2023-04-28T04:03:21.872Z,29.90
2023-04-28T04:06:10.596Z,20.15
2023-04-28T04:08:59.196Z,14.27
2023-04-28T04:11:47.769Z,9.70
2023-04-28T04:14:37.599Z,10.15
2023-04-28T04:17:26.541Z,8.82
2023-04-28T04:20:15.064Z,6.83
2023-04-28T04:23:03.733Z,6.68
2023-04-28T04:25:52.356Z,6.50
2023-04-28T04:28:41.038Z,4.80
2023-04-28T04:31:30.870Z,4.32
2023-04-28T04:34:19.471Z,3.70
2023-04-28T04:37:07.997Z,3.35
2023-04-28T04:39:56.583Z,3.25
2023-04-28T04:42:45.131Z,3.10
2023-04-28T04:45:33.970Z,2.80
2023-04-28T04:48:23.836Z,2.58
2023-04-28T04:51:12.488Z,2.70
2023-04-28T04:54:01.153Z,3.05
2023-04-28T04:56:49.698Z,3.10
2023-04-28T04:59:38.307Z,3.63
2023-04-28T05:02:26.888Z,3.33
2023-04-28T05:05:22.002Z,3.97
2023-04-28T05:08:11.849Z,3.80
2023-04-28T05:11:00.387Z,3.57
2023-04-28T05:13:48.917Z,4.40
2023-04-28T05:16:37.453Z,4.32
2023-04-28T05:19:26.119Z,6.57
2023-04-28T05:22:15.984Z,6.53
2023-04-28T05:25:04.587Z,6.07
2023-04-28T05:27:53.244Z,5.10
2023-04-28T05:30:41.761Z,5.90
2023-04-28T05:33:30.180Z,5.32
2023-04-28T05:36:18.809Z,5.30
2023-04-28T05:39:08.647Z,5.90
2023-04-28T05:41:58.692Z,4.95
2023-04-28T05:44:47.357Z,5.32
2023-04-28T05:47:36.232Z,4.95
2023-04-28T05:50:24.750Z,5.03
2023-04-28T05:53:13.219Z,4.70
2023-04-28T05:56:03.168Z,4.13
2023-04-28T05:58:52.119Z,5.15
2023-04-28T06:01:40.668Z,4.22
2023-04-28T06:04:29.405Z,4.28
2023-04-28T06:07:18.211Z,4.00
2023-04-28T06:10:07.675Z,4.30
2023-04-28T06:12:57.555Z,3.50
2023-04-28T06:15:46.253Z,2.83
2023-04-28T06:18:34.871Z,3.47
2023-04-28T06:21:25.042Z,3.40
2023-04-28T06:24:13.989Z,4.10
2023-04-28T06:27:02.846Z,2.75
2023-04-28T06:29:53.057Z,2.83
2023-04-28T06:32:41.702Z,3.90
2023-04-28T06:35:30.257Z,2.80
2023-04-28T06:38:18.818Z,4.10
2023-04-28T06:41:07.472Z,3.28
2023-04-28T06:43:56.005Z,3.67
2023-04-28T06:46:46.461Z,2.55
2023-04-28T06:49:35.322Z,2.13
2023-04-28T06:52:33.100Z,2.65
2023-04-28T06:55:28.643Z,2.58
2023-04-28T06:58:17.534Z,2.23
2023-04-28T07:01:06.157Z,4.10
2023-04-28T07:03:56.444Z,3.50
2023-04-28T07:06:45.090Z,2.60
2023-04-28T07:09:33.728Z,2.92
2023-04-28T07:12:22.862Z,4.07
2023-04-28T07:15:11.980Z,4.32
2023-04-28T07:18:00.722Z,3.30
2023-04-28T07:20:50.923Z,4.20
2023-04-28T07:23:40.913Z,3.40
2023-04-28T07:26:29.712Z,4.93
2023-04-28T07:29:18.545Z,4.53
2023-04-28T07:32:08.797Z,4.93
2023-04-28T07:34:57.699Z,4.50
2023-04-28T07:37:48.406Z,3.67
2023-04-28T07:40:37.200Z,4.35
2023-04-28T07:43:25.937Z,4.30
2023-04-28T07:46:14.906Z,3.78
2023-04-28T07:49:04.865Z,4.70
2023-04-28T07:51:55.034Z,5.00
2023-04-28T07:54:44.908Z,3.75
2023-04-28T07:57:33.613Z,5.03
2023-04-28T08:00:22.232Z,3.53
2023-04-28T08:03:11.122Z,3.17
2023-04-28T08:06:00.408Z,4.20
2023-04-28T08:08:49.294Z,5.00
2023-04-28T08:11:39.230Z,4.30
2023-04-28T08:14:27.894Z,3.83
2023-04-28T08:17:16.541Z,3.75
2023-04-28T08:20:06.858Z,5.22
2023-04-28T08:22:55.358Z,4.80
2023-04-28T08:25:44.082Z,5.45
2023-04-28T08:28:34.598Z,6.32
2023-04-28T08:31:23.975Z,5.05
2023-04-28T08:34:13.981Z,6.28
2023-04-28T08:37:04.213Z,7.22
2023-04-28T08:39:59.855Z,6.13
2023-04-28T08:42:48.887Z,12.45
2023-04-28T08:45:42.885Z,11.83
2023-04-28T08:48:34.069Z,10.02
2023-04-28T08:51:33.298Z,9.88
2023-04-28T08:54:26.538Z,11.35
2023-04-28T08:57:15.877Z,9.40
2023-04-28T09:00:05.353Z,8.15
2023-04-28T09:02:55.359Z,10.55
2023-04-28T09:05:44.180Z,11.10
2023-04-28T09:08:32.778Z,8.88
2023-04-28T09:11:21.344Z,12.20
2023-04-28T09:14:14.316Z,11.85
2023-04-28T09:17:03.889Z,9.23
2023-04-28T09:19:54.146Z,10.50
2023-04-28T09:22:43.001Z,8.93
2023-04-28T09:25:31.832Z,10.10
2023-04-28T09:28:24.235Z,10.23
2023-04-28T09:31:24.717Z,8.30
2023-04-28T09:34:13.823Z,8.85
2023-04-28T09:37:16.304Z,7.50
2023-04-28T09:40:07.575Z,10.15
2023-04-28T09:42:56.313Z,8.63
2023-04-28T09:45:45.894Z,7.30
2023-04-28T09:48:36.202Z,8.50
2023-04-28T09:51:24.845Z,11.55
2023-04-28T09:54:15.193Z,9.90
2023-04-28T09:57:04.497Z,6.70
2023-04-28T09:59:54.996Z,7.35
2023-04-28T10:02:45.598Z,7.80
2023-04-28T10:05:35.358Z,7.07
2023-04-28T10:08:24.895Z,8.38
2023-04-28T10:11:16.154Z,7.73
2023-04-28T10:14:04.925Z,5.55
2023-04-28T10:16:54.652Z,6.88
2023-04-28T10:19:44.721Z,7.65
2023-04-28T10:22:41.303Z,7.00
2023-04-28T10:25:32.036Z,5.75
2023-04-28T10:28:22.279Z,5.67
2023-04-28T10:31:12.040Z,8.33
2023-04-28T10:34:20.915Z,5.60
2023-04-28T10:37:09.853Z,5.10
2023-04-28T10:40:17.729Z,6.00
2023-04-28T10:43:07.239Z,4.25
2023-04-28T10:46:07.771Z,4.60
2023-04-28T10:49:00.194Z,3.78
2023-04-28T10:51:48.752Z,4.13
2023-04-28T10:54:37.237Z,3.15
2023-04-28T10:57:26.328Z,6.65
2023-04-28T11:00:33.034Z,5.22
2023-04-28T11:03:51.156Z,6.07
2023-04-28T11:06:41.664Z,5.35
2023-04-28T11:09:50.358Z,5.40
2023-04-28T11:12:58.826Z,4.68
2023-04-28T11:16:04.470Z,3.90
2023-04-28T11:18:57.582Z,8.07
2023-04-28T11:21:48.230Z,5.10
2023-04-28T11:24:36.717Z,5.30
2023-04-28T11:27:26.888Z,5.70
2023-04-28T11:30:22.984Z,4.90
2023-04-28T11:33:11.528Z,5.82
2023-04-28T11:36:01.719Z,4.07
2023-04-28T11:38:50.371Z,5.55
2023-04-28T11:41:40.813Z,4.38
2023-04-28T11:44:30.219Z,6.70
2023-04-28T11:47:29.315Z,5.32
2023-04-28T11:50:18.051Z,4.00
2023-04-28T11:53:07.891Z,4.18
2023-04-28T11:56:08.230Z,4.07
2023-04-28T11:59:08.762Z,5.18
2023-04-28T12:01:59.762Z,5.32
2023-04-28T12:04:50.688Z,5.30
2023-04-28T12:07:43.880Z,5.75
2023-04-28T12:10:33.951Z,5.60
2023-04-28T12:13:22.529Z,4.35
2023-04-28T12:16:11.161Z,4.75
2023-04-28T12:19:00.741Z,3.95
2023-04-28T12:22:06.381Z,6.50
2023-04-28T12:25:08.469Z,4.55
2023-04-28T12:28:04.153Z,4.00
2023-04-28T12:31:04.738Z,5.85
2023-04-28T12:33:53.658Z,3.67
2023-04-28T12:36:42.303Z,3.87
2023-04-28T12:39:31.198Z,3.58
2023-04-28T12:42:19.929Z,3.40
2023-04-28T12:45:10.652Z,3.40
2023-04-28T12:47:59.397Z,2.42
2023-04-28T12:50:48.310Z,2.97
2023-04-28T12:53:37.020Z,3.53
2023-04-28T12:56:25.783Z,3.33
2023-04-28T12:59:14.610Z,4.38
2023-04-28T13:02:04.815Z,3.73
2023-04-28T13:04:53.743Z,2.50
2023-04-28T13:07:42.579Z,3.17
2023-04-28T13:10:31.298Z,6.15
2023-04-28T13:13:20.029Z,6.30
2023-04-28T13:16:08.908Z,4.82
2023-04-28T13:18:59.248Z,5.30
2023-04-28T13:21:48.173Z,5.10
2023-04-28T13:24:37.008Z,4.07
2023-04-28T13:27:25.973Z,5.03
2023-04-28T13:30:15.021Z,3.55
2023-04-28T13:33:03.559Z,3.38
2023-04-28T13:35:53.403Z,4.15
2023-04-28T13:38:41.970Z,3.45
2023-04-28T13:41:30.962Z,4.60
2023-04-28T13:44:19.360Z,4.53
2023-04-28T13:47:09.743Z,4.37
2023-04-28T13:49:58.467Z,3.42
2023-04-28T13:52:48.627Z,3.53
2023-04-28T13:55:37.324Z,3.80
2023-04-28T13:58:26.153Z,4.03
2023-04-28T14:01:15.049Z,4.90
2023-04-28T14:04:04.322Z,3.05
2023-04-28T14:06:54.178Z,4.85
2023-04-28T14:09:44.304Z,5.50
2023-04-28T14:12:33.200Z,5.07
2023-04-28T14:15:22.029Z,3.80
2023-04-28T14:18:11.149Z,4.35
2023-04-28T14:20:59.932Z,2.85
2023-04-28T14:23:49.054Z,2.15
2023-04-28T14:26:39.785Z,2.33
2023-04-28T14:29:28.488Z,3.90
2023-04-28T14:32:20.983Z,4.32
2023-04-28T14:35:10.441Z,5.05
2023-04-28T14:37:59.041Z,2.80
2023-04-28T14:40:47.554Z,4.53
2023-04-28T14:43:37.995Z,4.50
2023-04-28T14:46:26.530Z,3.50
2023-04-28T14:49:15.019Z,4.17
2023-04-28T14:52:03.464Z,3.78
2023-04-28T14:54:51.883Z,2.50
2023-04-28T14:57:40.431Z,2.60
2023-04-28T15:00:30.872Z,2.63
2023-04-28T15:03:19.462Z,3.33
2023-04-28T15:06:07.934Z,4.55
2023-04-28T15:08:56.706Z,4.40
2023-04-28T15:11:45.599Z,2.30
2023-04-28T15:14:34.337Z,2.15
2023-04-28T15:17:24.932Z,3.08
2023-04-28T15:20:14.298Z,2.08
2023-04-28T15:23:02.948Z,2.83
2023-04-28T15:25:53.550Z,4.57
2023-04-28T15:28:42.428Z,4.60
2023-04-28T15:31:31.147Z,2.30
2023-04-28T15:34:21.336Z,3.08
2023-04-28T15:37:33.787Z,2.95
2023-04-28T15:40:22.447Z,2.15
2023-04-28T15:43:11.136Z,2.17
2023-04-28T15:46:01.012Z,2.10
2023-04-28T15:48:49.948Z,1.98
2023-04-28T15:51:40.091Z,2.80
2023-04-28T15:54:30.230Z,3.80
2023-04-28T15:57:18.953Z,2.30
2023-04-28T16:00:09.008Z,2.00
2023-04-28T16:02:57.834Z,1.80
2023-04-28T16:05:46.710Z,1.80
2023-04-28T16:08:36.987Z,1.73
2023-04-28T16:11:25.782Z,1.80
2023-04-28T16:14:15.506Z,1.90
2023-04-28T16:17:04.404Z,1.98
2023-04-28T16:19:53.192Z,2.67
2023-04-28T16:22:42.579Z,2.20
2023-04-28T16:25:32.675Z,2.17
2023-04-28T16:28:21.635Z,1.88
2023-04-28T16:31:12.284Z,1.85
2023-04-28T16:34:01.035Z,1.87
2023-04-28T16:36:50.276Z,1.70
2023-04-28T16:39:39.171Z,1.70
2023-04-28T16:42:29.282Z,1.83
2023-04-28T16:45:18.364Z,1.60
2023-04-28T16:48:07.119Z,1.60
2023-04-28T16:50:56.080Z,1.73
2023-04-28T16:53:44.851Z,1.40
2023-04-28T16:56:35.918Z,1.48
2023-04-28T16:59:29.487Z,1.58
2023-04-28T17:02:18.266Z,1.50
2023-04-28T17:05:07.278Z,1.83
2023-04-28T17:07:57.016Z,1.83
2023-04-28T17:10:45.831Z,2.00
2023-04-28T17:13:35.301Z,1.83
2023-04-28T17:16:25.806Z,1.60
2023-04-28T17:19:14.750Z,1.50
2023-04-28T17:22:04.235Z,2.50
2023-04-28T17:24:52.939Z,3.13
2023-04-28T17:27:41.706Z,2.70
2023-04-28T17:30:30.415Z,2.10
2023-04-28T17:33:20.754Z,2.50
2023-04-28T17:36:09.629Z,2.03
2023-04-28T17:38:58.342Z,4.70
2023-04-28T17:41:47.409Z,3.95
2023-04-28T17:44:36.193Z,2.30
2023-04-28T17:47:24.973Z,1.73
2023-04-28T17:50:15.091Z,1.98
2023-04-28T17:53:03.820Z,1.73
2023-04-28T17:55:52.519Z,1.90
2023-04-28T17:58:41.467Z,1.43
2023-04-28T18:01:30.282Z,1.77
2023-04-28T18:04:19.114Z,2.40
2023-04-28T18:07:09.365Z,2.40
2023-04-28T18:09:58.846Z,1.85
2023-04-28T18:12:47.599Z,1.95
2023-04-28T18:15:36.464Z,3.40
2023-04-28T18:18:26.333Z,2.70
2023-04-28T18:21:16.717Z,2.10
2023-04-28T18:24:07.157Z,1.52
2023-04-28T18:26:56.041Z,1.35
2023-04-28T18:29:45.015Z,1.20
2023-04-28T18:32:34.116Z,1.45
2023-04-28T18:35:22.815Z,1.40
2023-04-28T18:38:11.645Z,1.40
2023-04-28T18:41:02.308Z,1.65
2023-04-28T18:43:51.046Z,1.30
2023-04-28T18:46:39.821Z,1.58
2023-04-28T18:49:29.492Z,1.20
2023-04-28T18:52:18.287Z,1.83
2023-04-28T18:55:07.434Z,1.65
2023-04-28T18:57:57.682Z,1.25
2023-04-28T19:00:46.411Z,1.42
2023-04-28T19:03:35.340Z,1.30
2023-04-28T19:06:24.192Z,1.70
2023-04-28T19:09:12.600Z,1.60
2023-04-28T19:12:01.101Z,1.30
2023-04-28T19:14:50.971Z,1.60
2023-04-28T19:17:39.591Z,1.40
2023-04-28T19:20:28.409Z,1.50
2023-04-28T19:23:17.125Z,1.70
2023-04-28T19:26:06.290Z,1.75
2023-04-28T19:28:55.237Z,1.67
2023-04-28T19:31:45.719Z,1.85
2023-04-28T19:34:34.435Z,1.90
2023-04-28T19:37:23.269Z,1.90
2023-04-28T19:40:13.125Z,1.75
2023-04-28T19:43:01.580Z,1.57
2023-04-28T19:45:50.099Z,2.05
2023-04-28T19:48:40.932Z,1.40
2023-04-28T19:51:29.324Z,1.90
2023-04-28T19:54:18.219Z,1.47
2023-04-28T19:57:06.655Z,1.30
2023-04-28T19:59:55.065Z,1.60
2023-04-28T20:02:44.673Z,2.00
2023-04-28T20:05:35.361Z,2.10
2023-04-28T20:08:25.627Z,1.70
2023-04-28T20:11:14.432Z,1.65
2023-04-28T20:14:03.161Z,1.85
2023-04-28T20:16:52.299Z,1.98
2023-04-28T20:19:41.004Z,1.70
2023-04-28T20:22:31.637Z,2.10
2023-04-28T20:25:20.446Z,1.90
2023-04-28T20:28:09.221Z,2.03
2023-04-28T20:30:58.195Z,2.10
2023-04-28T20:33:46.912Z,2.28
2023-04-28T20:36:36.013Z,2.27
2023-04-28T20:39:26.181Z,1.98
2023-04-28T20:42:14.842Z,1.98
2023-04-28T20:45:04.497Z,1.70
2023-04-28T20:47:55.177Z,1.50
2023-04-28T20:50:45.322Z,1.67
2023-04-28T20:53:33.787Z,1.83
2023-04-28T20:56:23.596Z,1.70
2023-04-28T20:59:12.152Z,1.52
2023-04-28T21:02:00.953Z,1.55
2023-04-28T21:04:49.472Z,1.90
2023-04-28T21:07:37.967Z,1.88
2023-04-28T21:10:26.438Z,2.00
2023-04-28T21:13:16.245Z,1.60
2023-04-28T21:16:04.772Z,1.83
2023-04-28T21:18:54.562Z,1.77
2023-04-28T21:21:43.000Z,1.70
2023-04-28T21:24:31.414Z,1.50
2023-04-28T21:27:19.807Z,1.80
2023-04-28T21:30:12.911Z,1.83
2023-04-28T21:33:02.018Z,1.90
2023-04-28T21:35:50.579Z,1.83
2023-04-28T21:38:39.042Z,1.63
2023-04-28T21:41:27.603Z,1.85
2023-04-28T21:44:16.553Z,2.00
2023-04-28T21:47:06.944Z,2.17
2023-04-28T21:49:55.643Z,1.80
2023-04-28T21:52:44.669Z,1.90
2023-04-28T21:55:33.101Z,1.90
2023-04-28T21:58:21.549Z,1.73
2023-04-28T22:01:10.263Z,2.13
2023-04-28T22:04:01.649Z,1.55
2023-04-28T22:06:50.540Z,1.90
2023-04-28T22:09:39.104Z,1.67
2023-04-28T22:12:27.532Z,1.83
2023-04-28T22:15:16.014Z,2.70
2023-04-28T22:18:05.262Z,1.50
2023-04-28T22:20:55.459Z,1.95
2023-04-28T22:23:43.929Z,1.70
2023-04-28T22:26:32.383Z,2.10
2023-04-28T22:29:21.652Z,1.50
2023-04-28T22:32:10.919Z,2.00
2023-04-28T22:34:59.310Z,2.13
2023-04-28T22:37:49.122Z,1.90
2023-04-28T22:40:37.575Z,1.80
2023-04-28T22:43:26.260Z,2.17
2023-04-28T22:46:14.840Z,1.70
2023-04-28T22:49:03.432Z,2.03
2023-04-28T22:51:51.882Z,1.77
2023-04-28T22:54:41.908Z,1.80
2023-04-28T22:57:30.748Z,1.50
2023-04-28T23:00:19.440Z,1.90
2023-04-28T23:03:08.116Z,1.30
2023-04-28T23:05:57.408Z,1.88
2023-04-28T23:08:46.160Z,1.10
2023-04-28T23:11:36.062Z,1.20
2023-04-28T23:14:24.450Z,1.05
2023-04-28T23:17:13.068Z,1.35
2023-04-28T23:20:01.631Z,1.00
2023-04-28T23:22:50.599Z,0.90
2023-04-28T23:25:43.003Z,1.20
2023-04-28T23:28:32.798Z,1.73
2023-04-28T23:31:21.502Z,1.35
2023-04-28T23:34:10.234Z,1.95
2023-04-28T23:36:59.284Z,1.60
2023-04-28T23:39:47.840Z,1.50
2023-04-28T23:42:36.314Z,2.08
2023-04-28T23:45:26.389Z,1.60
2023-04-28T23:48:14.906Z,1.90
2023-04-28T23:51:03.347Z,1.60
2023-04-28T23:53:52.366Z,1.50
2023-04-28T23:56:41.124Z,1.50
2023-04-28T23:59:30.599Z,1.00
